createdAt,value
2019-01-08T00:00:36.675Z,100982.49
2019-01-08T00:02:38.050Z,100976.88
2019-01-08T00:04:39.710Z,100979.39
2019-01-08T00:06:41.093Z,100959.60
2019-01-08T00:08:42.488Z,100961.96
2019-01-08T00:10:43.916Z,100956.47
2019-01-08T00:12:45.301Z,100954.02
2019-01-08T00:14:46.692Z,100958.08
2019-01-08T00:16:48.128Z,100943.88
2019-01-08T00:18:49.522Z,100937.02
2019-01-08T00:20:50.922Z,100940.60
2019-01-08T00:22:52.416Z,100936.66
2019-01-08T00:24:53.802Z,100934.19
2019-01-08T00:26:55.189Z,100921.40
2019-01-08T00:28:56.893Z,100915.12
2019-01-08T00:30:58.268Z,100907.52
2019-01-08T00:32:59.649Z,100913.73
2019-01-08T00:35:01.329Z,100907.14
2019-01-08T00:37:02.712Z,100892.86
2019-01-08T00:39:05.212Z,100884.77
2019-01-08T00:41:06.629Z,100889.02
2019-01-08T00:43:08.109Z,100872.22
2019-01-08T00:45:09.789Z,100866.16
2019-01-08T00:47:11.170Z,100862.84
2019-01-08T00:49:12.553Z,100854.42
2019-01-08T00:51:14.072Z,100855.01
2019-01-08T00:53:15.442Z,100851.42
2019-01-08T00:55:16.845Z,100848.55
2019-01-08T00:57:18.766Z,100839.81
2019-01-08T00:59:20.168Z,100831.57
2019-01-08T01:01:21.536Z,100828.66
2019-01-08T01:03:23.228Z,100836.31
2019-01-08T01:05:24.611Z,100826.78
2019-01-08T01:07:25.992Z,100821.98
2019-01-08T01:09:27.431Z,100813.25
2019-01-08T01:11:28.822Z,100813.34
2019-01-08T01:13:30.221Z,100810.78
2019-01-08T01:15:31.669Z,100794.59
2019-01-08T01:17:33.048Z,100790.58
2019-01-08T01:19:34.445Z,100783.31
2019-01-08T01:21:35.891Z,100780.38
2019-01-08T01:23:37.578Z,100775.53
2019-01-08T01:25:38.944Z,100783.89
2019-01-08T01:27:40.341Z,100768.69
2019-01-08T01:29:41.772Z,100766.41
2019-01-08T01:31:43.177Z,100772.04
2019-01-08T01:33:44.573Z,100745.94
2019-01-08T01:35:46.023Z,100754.49
2019-01-08T01:37:47.397Z,100739.33
2019-01-08T01:39:48.803Z,100739.27
2019-01-08T01:41:50.299Z,100732.57
2019-01-08T01:43:51.678Z,100727.34
2019-01-08T01:45:53.093Z,100724.09
2019-01-08T01:47:54.923Z,100733.06
2019-01-08T01:49:56.623Z,100710.41
2019-01-08T01:51:58.455Z,100705.91
2019-01-08T01:54:01.117Z,100699.36
2019-01-08T01:56:02.802Z,100698.90
2019-01-08T01:58:04.679Z,100700.90
2019-01-08T02:00:06.842Z,100698.32
2019-01-08T02:02:08.719Z,100693.98
2019-01-08T02:04:10.423Z,100693.97
2019-01-08T02:06:12.250Z,100680.13
2019-01-08T02:08:13.935Z,100676.98
2019-01-08T02:10:15.684Z,100670.73
2019-01-08T02:12:17.382Z,100674.47
2019-01-08T02:14:19.059Z,100662.87
2019-01-08T02:16:20.795Z,100660.28
2019-01-08T02:18:22.545Z,100654.42
2019-01-08T02:20:24.492Z,100640.70
2019-01-08T02:22:25.888Z,100637.53
2019-01-08T02:24:27.265Z,100634.43
2019-01-08T02:26:28.690Z,100635.95
2019-01-08T02:28:30.071Z,100632.78
2019-01-08T02:30:31.426Z,100616.30
2019-01-08T02:32:32.864Z,100620.13
2019-01-08T02:34:34.278Z,100617.75
2019-01-08T02:36:35.675Z,100613.92
2019-01-08T02:38:37.500Z,100610.34
2019-01-08T02:40:38.901Z,100612.05
2019-01-08T02:42:40.278Z,100614.16
2019-01-08T02:44:41.845Z,100606.67
2019-01-08T02:46:43.509Z,100610.14
2019-01-08T02:48:45.006Z,100604.28
2019-01-08T02:50:46.467Z,100597.25
2019-01-08T02:52:47.842Z,100587.48
2019-01-08T02:54:49.332Z,100578.69
2019-01-08T02:56:51.097Z,100574.05
2019-01-08T02:58:52.434Z,100565.74
2019-01-08T03:00:53.841Z,100556.95
2019-01-08T03:02:55.246Z,100561.00
2019-01-08T03:04:56.648Z,100551.55
2019-01-08T03:06:58.138Z,100544.14
2019-01-08T03:08:59.527Z,100539.69
2019-01-08T03:11:00.931Z,100531.69
2019-01-08T03:13:02.311Z,100531.27
2019-01-08T03:15:04.493Z,100528.75
2019-01-08T03:17:05.914Z,100526.11
2019-01-08T03:19:07.333Z,100518.77
2019-01-08T03:21:08.954Z,100511.09
2019-01-08T03:23:10.328Z,100514.86
2019-01-08T03:25:11.713Z,100510.59
2019-01-08T03:27:13.169Z,100504.64
2019-01-08T03:29:14.546Z,100497.78
2019-01-08T03:31:15.993Z,100494.78
2019-01-08T03:33:17.370Z,100491.34
2019-01-08T03:35:18.747Z,100486.50
2019-01-08T03:37:20.184Z,100484.80
2019-01-08T03:39:21.581Z,100474.23
2019-01-08T03:41:22.968Z,100466.97
2019-01-08T03:43:24.567Z,100465.22
2019-01-08T03:45:25.944Z,100460.25
2019-01-08T03:47:27.329Z,100448.47
2019-01-08T03:49:28.740Z,100446.78
2019-01-08T03:51:30.173Z,100437.63
2019-01-08T03:53:33.143Z,100438.39
2019-01-08T03:55:34.762Z,100438.00
2019-01-08T03:57:36.204Z,100436.53
2019-01-08T03:59:41.822Z,100432.94
2019-01-08T04:01:40.934Z,100425.74
2019-01-08T04:03:42.364Z,100418.19
2019-01-08T04:05:43.783Z,100409.70
2019-01-08T04:07:45.202Z,100398.17
2019-01-08T04:09:46.618Z,100410.66
2019-01-08T04:11:47.991Z,100413.66
2019-01-08T04:13:49.396Z,100412.45
2019-01-08T04:15:50.913Z,100408.31
2019-01-08T04:17:52.306Z,100405.13
2019-01-08T04:19:53.737Z,100402.13
2019-01-08T04:21:55.092Z,100403.31
2019-01-08T04:23:56.533Z,100395.08
2019-01-08T04:25:58.015Z,100390.66
2019-01-08T04:27:59.437Z,100390.44
2019-01-08T04:30:00.848Z,100392.79
2019-01-08T04:32:02.226Z,100374.08
2019-01-08T04:34:03.615Z,100370.41
2019-01-08T04:36:05.037Z,100365.69
2019-01-08T04:38:06.460Z,100366.83
2019-01-08T04:40:07.961Z,100368.87
2019-01-08T04:42:09.386Z,100355.99
2019-01-08T04:44:10.772Z,100360.77
2019-01-08T04:46:12.157Z,100351.72
2019-01-08T04:48:13.866Z,100350.27
2019-01-08T04:50:15.260Z,100345.63
2019-01-08T04:52:16.604Z,100337.30
2019-01-08T04:54:18.299Z,100330.82
2019-01-08T04:56:19.680Z,100328.21
2019-01-08T04:58:21.103Z,100320.38
2019-01-08T05:00:22.570Z,100312.91
2019-01-08T05:02:23.962Z,100308.30
2019-01-08T05:04:25.464Z,100304.67
2019-01-08T05:06:26.826Z,100290.57
2019-01-08T05:08:28.219Z,100288.23
2019-01-08T05:10:29.640Z,100293.73
2019-01-08T05:12:31.025Z,100288.12
2019-01-08T05:14:32.428Z,100283.36
2019-01-08T05:16:33.830Z,100273.54
2019-01-08T05:18:35.217Z,100267.66
2019-01-08T05:20:36.637Z,100252.86
2019-01-08T05:22:38.057Z,100251.20
2019-01-08T05:24:39.442Z,100238.09
2019-01-08T05:26:40.824Z,100231.49
2019-01-08T05:28:42.284Z,100222.71
2019-01-08T05:30:43.613Z,100225.45
2019-01-08T05:32:44.991Z,100231.44
2019-01-08T05:34:46.644Z,100231.48
2019-01-08T05:36:48.024Z,100225.53
2019-01-08T05:38:49.409Z,100219.27
2019-01-08T05:40:50.829Z,100212.12
2019-01-08T05:42:52.203Z,100207.67
2019-01-08T05:44:53.599Z,100201.02
2019-01-08T05:46:55.045Z,100198.59
2019-01-08T05:48:56.425Z,100198.33
2019-01-08T05:50:57.815Z,100194.30
2019-01-08T05:52:59.289Z,100188.83
2019-01-08T05:55:00.635Z,100183.12
2019-01-08T05:57:02.065Z,100176.02
2019-01-08T05:59:03.538Z,100179.48
2019-01-08T06:01:05.037Z,100184.91
2019-01-08T06:03:06.425Z,100174.28
2019-01-08T06:05:07.844Z,100173.31
2019-01-08T06:07:09.261Z,100168.27
2019-01-08T06:09:10.678Z,100172.72
2019-01-08T06:11:12.121Z,100172.52
2019-01-08T06:13:13.492Z,100163.23
2019-01-08T06:15:14.879Z,100163.59
2019-01-08T06:17:16.292Z,100152.50
2019-01-08T06:19:17.666Z,100153.84
2019-01-08T06:21:19.065Z,100153.35
2019-01-08T06:23:20.450Z,100147.59
2019-01-08T06:25:21.878Z,100143.38
2019-01-08T06:27:23.285Z,100136.84
2019-01-08T06:29:24.661Z,100133.98
2019-01-08T06:31:26.076Z,100123.33
2019-01-08T06:33:27.482Z,100122.38
2019-01-08T06:35:28.979Z,100119.04
2019-01-08T06:37:30.449Z,100126.54
2019-01-08T06:39:31.894Z,100114.78
2019-01-08T06:41:33.252Z,100110.95
2019-01-08T06:43:34.638Z,100107.92
2019-01-08T06:45:36.094Z,100103.30
2019-01-08T06:47:37.451Z,100107.08
2019-01-08T06:49:38.848Z,100105.77
2019-01-08T06:51:40.266Z,100098.22
2019-01-08T06:53:41.711Z,100089.84
2019-01-08T06:55:43.151Z,100086.12
2019-01-08T06:57:44.559Z,100082.58
2019-01-08T06:59:45.999Z,100082.91
2019-01-08T07:01:47.346Z,100064.61
2019-01-08T07:03:48.733Z,100068.66
2019-01-08T07:05:50.186Z,100060.02
2019-01-08T07:07:51.577Z,100061.66
2019-01-08T07:09:52.983Z,100060.59
2019-01-08T07:11:54.413Z,100061.34
2019-01-08T07:13:56.018Z,100065.77
2019-01-08T07:15:57.455Z,100063.28
2019-01-08T07:17:58.854Z,100067.27
2019-01-08T07:20:00.530Z,100059.91
2019-01-08T07:22:02.027Z,100060.91
2019-01-08T07:24:03.659Z,100056.73
2019-01-08T07:26:05.119Z,100042.23
2019-01-08T07:28:06.487Z,100044.05
2019-01-08T07:30:07.877Z,100039.05
2019-01-08T07:32:09.359Z,100024.08
2019-01-08T07:34:10.801Z,100039.05
2019-01-08T07:36:12.190Z,100028.70
2019-01-08T07:38:13.629Z,100019.70
2019-01-08T07:40:15.039Z,100018.97
2019-01-08T07:42:16.483Z,100014.22
2019-01-08T07:44:17.924Z,100012.34
2019-01-08T07:46:19.317Z,100011.52
2019-01-08T07:48:20.911Z,100000.59
2019-01-08T07:50:22.416Z,99993.37
2019-01-08T07:52:23.816Z,99985.24
2019-01-08T07:54:25.332Z,99974.48
2019-01-08T07:56:26.785Z,99976.44
2019-01-08T07:58:28.174Z,99964.41
2019-01-08T08:00:29.558Z,99955.41
2019-01-08T08:02:30.992Z,99944.83
2019-01-08T08:04:32.380Z,99971.58
2019-01-08T08:06:33.817Z,99942.79
2019-01-08T08:08:35.203Z,99926.80
2019-01-08T08:10:36.607Z,99913.46
2019-01-08T08:12:38.042Z,99922.02
2019-01-08T08:14:39.421Z,99922.04
2019-01-08T08:16:40.861Z,99908.41
2019-01-08T08:18:42.252Z,99905.75
2019-01-08T08:20:46.468Z,99909.87
2019-01-08T08:22:47.908Z,99898.86
2019-01-08T08:24:49.306Z,99896.03
2019-01-08T08:26:50.717Z,99897.10
2019-01-08T08:28:52.168Z,99898.34
2019-01-08T08:30:58.508Z,99883.96
2019-01-08T08:32:56.850Z,99882.96
2019-01-08T08:34:58.504Z,99877.66
2019-01-08T08:36:59.998Z,99877.70
2019-01-08T08:39:01.411Z,99870.02
2019-01-08T08:41:02.847Z,99877.82
2019-01-08T08:43:04.275Z,99872.16
2019-01-08T08:45:05.949Z,99873.05
2019-01-08T08:47:07.374Z,99857.17
2019-01-08T08:49:08.805Z,99857.44
2019-01-08T08:51:10.215Z,99860.05
2019-01-08T08:53:11.751Z,99851.31
2019-01-08T08:55:13.175Z,99845.70
2019-01-08T08:57:14.571Z,99835.39
2019-01-08T08:59:15.992Z,99844.81
2019-01-08T09:01:17.426Z,99833.11
2019-01-08T09:03:18.819Z,99831.75
2019-01-08T09:05:20.246Z,99825.98
2019-01-08T09:07:21.645Z,99821.42
2019-01-08T09:09:23.048Z,99814.17
2019-01-08T09:11:24.484Z,99809.52
2019-01-08T09:13:25.890Z,99806.83
2019-01-08T09:15:29.146Z,99804.56
2019-01-08T09:17:30.543Z,99803.03
2019-01-08T09:19:31.934Z,99803.53
2019-01-08T09:21:33.610Z,99801.45
2019-01-08T09:23:34.978Z,99791.16
2019-01-08T09:25:36.381Z,99787.42
2019-01-08T09:27:38.182Z,99787.72
2019-01-08T09:29:39.610Z,99793.07
2019-01-08T09:31:40.999Z,99761.73
2019-01-08T09:33:42.426Z,99756.34
2019-01-08T09:35:43.827Z,99749.23
2019-01-08T09:37:45.213Z,99755.06
2019-01-08T09:39:46.639Z,99738.97
2019-01-08T09:41:48.074Z,99738.22
2019-01-08T09:43:49.463Z,99734.79
2019-01-08T09:45:50.927Z,99744.20
2019-01-08T09:47:52.327Z,99730.45
2019-01-08T09:49:53.767Z,99717.70
2019-01-08T09:51:55.169Z,99710.89
2019-01-08T09:53:56.544Z,99701.37
2019-01-08T09:55:58.026Z,99692.23
2019-01-08T09:57:59.510Z,99700.19
2019-01-08T10:00:00.902Z,99683.00
2019-01-08T10:02:02.314Z,99685.86
2019-01-08T10:04:03.747Z,99686.23
2019-01-08T10:06:05.136Z,99684.69
2019-01-08T10:08:06.528Z,99686.30
2019-01-08T10:10:08.065Z,99675.30
2019-01-08T10:12:09.492Z,99682.18
2019-01-08T10:14:10.891Z,99665.67
2019-01-08T10:16:12.329Z,99669.04
2019-01-08T10:18:13.720Z,99669.39
2019-01-08T10:20:15.232Z,99659.00
2019-01-08T10:22:16.667Z,99655.67
2019-01-08T10:24:18.071Z,99656.31
2019-01-08T10:26:19.471Z,99650.73
2019-01-08T10:28:20.897Z,99647.33
2019-01-08T10:30:22.423Z,99643.39
2019-01-08T10:32:23.868Z,99633.31
2019-01-08T10:34:25.301Z,99644.40
2019-01-08T10:36:26.702Z,99622.11
2019-01-08T10:38:28.099Z,99631.39
2019-01-08T10:40:29.545Z,99622.55
2019-01-08T10:42:30.952Z,99617.98
2019-01-08T10:44:32.339Z,99622.54
2019-01-08T10:46:37.585Z,99612.09
2019-01-08T10:48:37.437Z,99609.59
2019-01-08T10:50:38.834Z,99606.04
2019-01-08T10:52:40.344Z,99593.62
2019-01-08T10:54:41.729Z,99593.66
2019-01-08T10:56:43.114Z,99599.56
2019-01-08T10:58:44.533Z,99603.31
2019-01-08T11:00:45.929Z,99589.77
2019-01-08T11:02:47.337Z,99587.97
2019-01-08T11:04:48.756Z,99570.67
2019-01-08T11:06:50.177Z,99564.82
2019-01-08T11:08:51.565Z,99571.91
2019-01-08T11:10:53.239Z,99572.58
2019-01-08T11:12:54.637Z,99564.98
2019-01-08T11:14:56.020Z,99559.34
2019-01-08T11:16:57.470Z,99560.23
2019-01-08T11:18:58.881Z,99561.87
2019-01-08T11:21:00.292Z,99554.40
2019-01-08T11:23:01.748Z,99548.67
2019-01-08T11:25:04.427Z,99547.47
2019-01-08T11:27:05.820Z,99556.37
2019-01-08T11:29:07.273Z,99554.83
2019-01-08T11:31:08.665Z,99550.67
2019-01-08T11:33:10.137Z,99545.21
2019-01-08T11:35:11.537Z,99551.02
2019-01-08T11:37:14.198Z,99545.39
2019-01-08T11:39:15.614Z,99541.63
2019-01-08T11:41:17.014Z,99550.05
2019-01-08T11:43:18.552Z,99528.41
2019-01-08T11:45:20.077Z,99533.70
2019-01-08T11:47:21.509Z,99532.31
2019-01-08T11:49:22.984Z,99533.70
2019-01-08T11:51:24.406Z,99527.73
2019-01-08T11:53:25.840Z,99523.30
2019-01-08T11:55:27.363Z,99518.53
2019-01-08T11:57:28.840Z,99515.16
2019-01-08T11:59:30.299Z,99508.39
2019-01-08T12:01:31.685Z,99512.70
2019-01-08T12:03:33.090Z,99512.74
2019-01-08T12:05:34.533Z,99499.89
2019-01-08T12:07:36.247Z,99512.63
2019-01-08T12:09:37.633Z,99497.55
2019-01-08T12:11:39.149Z,99503.11
2019-01-08T12:13:40.800Z,99493.36
2019-01-08T12:15:42.192Z,99498.63
2019-01-08T12:17:43.601Z,99489.54
2019-01-08T12:19:45.052Z,99498.22
2019-01-08T12:21:46.555Z,99475.20
2019-01-08T12:23:48.073Z,99484.17
2019-01-08T12:25:49.492Z,99481.07
2019-01-08T12:27:50.895Z,99477.23
2019-01-08T12:29:52.284Z,99478.94
2019-01-08T12:31:55.727Z,99478.31
2019-01-08T12:33:57.027Z,99472.64
2019-01-08T12:35:58.454Z,99477.37
2019-01-08T12:37:59.881Z,99479.77
2019-01-08T12:40:01.284Z,99474.14
2019-01-08T12:42:02.708Z,99472.96
2019-01-08T12:44:04.225Z,99468.75
2019-01-08T12:46:05.615Z,99469.83
2019-01-08T12:48:07.001Z,99469.38
2019-01-08T12:50:08.416Z,99463.80
2019-01-08T12:52:09.835Z,99465.52
2019-01-08T12:54:11.277Z,99466.56
2019-01-08T12:56:12.664Z,99464.23
2019-01-08T12:58:14.049Z,99465.66
2019-01-08T13:00:15.577Z,99461.29
2019-01-08T13:02:16.972Z,99467.44
2019-01-08T13:04:18.448Z,99468.22
2019-01-08T13:06:20.204Z,99459.75
2019-01-08T13:08:21.587Z,99465.75
2019-01-08T13:10:23.048Z,99467.54
2019-01-08T13:12:24.470Z,99465.19
2019-01-08T13:14:25.926Z,99465.98
2019-01-08T13:16:27.312Z,99460.55
2019-01-08T13:18:28.725Z,99466.18
2019-01-08T13:20:30.167Z,99457.88
2019-01-08T13:22:31.559Z,99464.39
2019-01-08T13:24:33.218Z,99466.39
2019-01-08T13:26:34.590Z,99469.38
2019-01-08T13:28:35.975Z,99462.03
2019-01-08T13:30:37.423Z,99461.72
2019-01-08T13:32:38.838Z,99459.66
2019-01-08T13:34:40.229Z,99460.19
2019-01-08T13:36:41.679Z,99461.14
2019-01-08T13:38:43.072Z,99463.60
2019-01-08T13:40:44.468Z,99462.06
2019-01-08T13:42:45.921Z,99470.70
2019-01-08T13:44:47.369Z,99472.25
2019-01-08T13:46:48.854Z,99469.00
2019-01-08T13:48:50.390Z,99469.33
2019-01-08T13:50:51.873Z,99465.53
2019-01-08T13:52:53.281Z,99467.90
2019-01-08T13:54:54.690Z,99457.39
2019-01-08T13:56:56.157Z,99464.73
2019-01-08T13:58:57.635Z,99465.81
2019-01-08T14:00:59.033Z,99464.63
2019-01-08T14:03:00.589Z,99468.37
2019-01-08T14:05:02.112Z,99474.97
2019-01-08T14:07:03.519Z,99468.37
2019-01-08T14:09:06.290Z,99468.56
2019-01-08T14:11:07.730Z,99465.61
2019-01-08T14:13:09.185Z,99475.16
2019-01-08T14:15:10.786Z,99477.08
2019-01-08T14:17:12.168Z,99477.17
2019-01-08T14:19:13.627Z,99467.79
2019-01-08T14:21:15.035Z,99478.55
2019-01-08T14:23:16.410Z,99472.59
2019-01-08T14:25:17.826Z,99481.42
2019-01-08T14:27:19.270Z,99470.78
2019-01-08T14:29:20.659Z,99476.67
2019-01-08T14:31:22.048Z,99477.35
2019-01-08T14:33:23.498Z,99487.19
2019-01-08T14:35:24.962Z,99488.88
2019-01-08T14:37:26.343Z,99494.77
2019-01-08T14:39:27.838Z,99501.08
2019-01-08T14:41:29.469Z,99494.41
2019-01-08T14:43:30.864Z,99493.78
2019-01-08T14:45:32.262Z,99496.17
2019-01-08T14:47:33.901Z,99497.16
2019-01-08T14:49:35.275Z,99500.13
2019-01-08T14:51:36.673Z,99501.89
2019-01-08T14:53:38.165Z,99503.19
2019-01-08T14:55:39.648Z,99511.88
2019-01-08T14:57:41.029Z,99509.69
2019-01-08T14:59:42.409Z,99508.27
2019-01-08T15:01:43.838Z,99508.91
2019-01-08T15:03:45.219Z,99505.58
2019-01-08T15:05:46.630Z,99505.34
2019-01-08T15:07:48.260Z,99504.80
2019-01-08T15:09:49.722Z,99506.64
2019-01-08T15:11:51.156Z,99509.39
2019-01-08T15:13:52.600Z,99511.78
2019-01-08T15:15:53.983Z,99511.66
2019-01-08T15:17:55.376Z,99511.53
2019-01-08T15:19:56.894Z,99512.02
2019-01-08T15:21:58.546Z,99515.59
2019-01-08T15:23:59.929Z,99516.89
2019-01-08T15:26:01.310Z,99521.69
2019-01-08T15:28:02.762Z,99514.80
2019-01-08T15:30:08.061Z,99527.73
2019-01-08T15:32:09.558Z,99526.12
2019-01-08T15:34:11.004Z,99521.67
2019-01-08T15:36:12.391Z,99519.73
2019-01-08T15:38:13.788Z,99520.64
2019-01-08T15:40:15.230Z,99526.91
2019-01-08T15:42:16.695Z,99528.14
2019-01-08T15:44:18.146Z,99526.54
2019-01-08T15:46:19.638Z,99522.72
2019-01-08T15:48:21.020Z,99521.43
2019-01-08T15:50:22.459Z,99523.91
2019-01-08T15:52:23.918Z,99526.85
2019-01-08T15:54:25.293Z,99522.37
2019-01-08T15:56:26.683Z,99517.47
2019-01-08T15:58:28.726Z,99512.69
2019-01-08T16:00:30.163Z,99519.41
2019-01-08T16:02:31.549Z,99511.80
2019-01-08T16:04:32.994Z,99518.08
2019-01-08T16:06:34.387Z,99512.58
2019-01-08T16:08:35.772Z,99512.27
2019-01-08T16:10:37.214Z,99509.88
2019-01-08T16:12:38.602Z,99515.72
2019-01-08T16:14:39.998Z,99514.09
2019-01-08T16:16:41.431Z,99508.17
2019-01-08T16:18:42.821Z,99509.61
2019-01-08T16:20:44.204Z,99516.84
2019-01-08T16:22:45.651Z,99514.72
2019-01-08T16:24:47.040Z,99520.03
2019-01-08T16:26:48.491Z,99522.32
2019-01-08T16:28:49.875Z,99520.69
2019-01-08T16:30:51.329Z,99527.17
2019-01-08T16:32:52.756Z,99523.09
2019-01-08T16:34:54.139Z,99525.03
2019-01-08T16:36:55.624Z,99527.27
2019-01-08T16:38:57.092Z,99520.18
2019-01-08T16:40:58.563Z,99529.60
2019-01-08T16:43:00.007Z,99532.70
2019-01-08T16:45:01.414Z,99531.79
2019-01-08T16:47:03.196Z,99533.14
2019-01-08T16:49:04.643Z,99525.23
2019-01-08T16:51:06.105Z,99532.12
2019-01-08T16:53:07.490Z,99530.61
2019-01-08T16:55:08.993Z,99535.35
2019-01-08T16:57:10.450Z,99543.33
2019-01-08T16:59:12.118Z,99544.52
2019-01-08T17:01:13.526Z,99547.12
2019-01-08T17:03:14.912Z,99546.02
2019-01-08T17:05:16.370Z,99546.77
2019-01-08T17:07:17.790Z,99539.45
2019-01-08T17:09:19.180Z,99554.28
2019-01-08T17:11:20.705Z,99557.83
2019-01-08T17:13:22.091Z,99558.68
2019-01-08T17:15:23.586Z,99560.73
2019-01-08T17:17:25.050Z,99564.02
2019-01-08T17:19:26.486Z,99569.31
2019-01-08T17:21:27.879Z,99573.86
2019-01-08T17:23:29.344Z,99577.52
2019-01-08T17:25:30.885Z,99570.47
2019-01-08T17:27:32.280Z,99572.05
2019-01-08T17:29:33.742Z,99580.09
2019-01-08T17:31:35.262Z,99589.35
2019-01-08T17:33:36.709Z,99586.61
2019-01-08T17:35:38.102Z,99594.47
2019-01-08T17:37:39.512Z,99596.63
2019-01-08T17:39:40.974Z,99600.71
2019-01-08T17:41:42.357Z,99608.31
2019-01-08T17:43:43.782Z,99622.66
2019-01-08T17:45:45.249Z,99618.58
2019-01-08T17:47:46.663Z,99624.36
2019-01-08T17:49:48.067Z,99610.13
2019-01-08T17:51:49.530Z,99611.16
2019-01-08T17:53:50.929Z,99609.30
2019-01-08T17:55:52.565Z,99603.13
2019-01-08T17:58:33.325Z,99614.58
2019-01-08T18:00:35.096Z,99621.30
2019-01-08T18:02:36.959Z,99623.95
2019-01-08T18:04:38.353Z,99620.36
2019-01-08T18:06:39.850Z,99620.34
2019-01-08T18:08:41.397Z,99622.52
2019-01-08T18:10:42.790Z,99627.80
2019-01-08T18:12:44.173Z,99620.52
2019-01-08T18:14:45.892Z,99632.20
2019-01-08T18:16:47.306Z,99625.48
2019-01-08T18:18:48.686Z,99629.32
2019-01-08T18:20:50.382Z,99630.81
2019-01-08T18:22:51.795Z,99628.37
2019-01-08T18:24:53.186Z,99626.38
2019-01-08T18:26:54.893Z,99630.63
2019-01-08T18:28:56.361Z,99632.16
2019-01-08T18:30:57.772Z,99634.34
2019-01-08T18:32:59.523Z,99629.99
2019-01-08T18:35:00.916Z,99640.55
2019-01-08T18:37:03.938Z,99632.59
2019-01-08T18:39:05.753Z,99640.64
2019-01-08T18:41:07.144Z,99645.28
2019-01-08T18:43:13.855Z,99637.55
2019-01-08T18:45:12.117Z,99641.14
2019-01-08T18:47:13.528Z,99644.98
2019-01-08T18:49:14.922Z,99643.17
2019-01-08T18:51:16.606Z,99643.23
2019-01-08T18:53:18.008Z,99642.31
2019-01-08T18:55:19.403Z,99647.44
2019-01-08T18:57:20.865Z,99644.66
2019-01-08T18:59:22.368Z,99634.01
2019-01-08T19:01:23.762Z,99648.42
2019-01-08T19:03:25.225Z,99648.16
2019-01-08T19:05:26.616Z,99654.38
2019-01-08T19:07:28.080Z,99657.69
2019-01-08T19:09:31.351Z,99655.23
2019-01-08T19:11:32.742Z,99663.38
2019-01-08T19:13:34.145Z,99659.40
2019-01-08T19:15:35.699Z,99659.51
2019-01-08T19:17:37.095Z,99662.47
2019-01-08T19:19:38.486Z,99662.27
2019-01-08T19:21:40.059Z,99656.03
2019-01-08T19:23:41.447Z,99657.77
2019-01-08T19:25:42.832Z,99660.58
2019-01-08T19:27:44.569Z,99667.17
2019-01-08T19:29:45.972Z,99663.36
2019-01-08T19:31:47.374Z,99671.97
2019-01-08T19:33:48.837Z,99667.52
2019-01-08T19:35:50.579Z,99661.25
2019-01-08T19:37:51.975Z,99662.45
2019-01-08T19:39:53.361Z,99673.59
2019-01-08T19:41:54.801Z,99666.42
2019-01-08T19:43:56.499Z,99660.50
2019-01-08T19:45:57.951Z,99665.42
2019-01-08T19:47:59.360Z,99665.98
2019-01-08T19:50:00.849Z,99672.96
2019-01-08T19:52:02.261Z,99668.79
2019-01-08T19:54:03.656Z,99669.41
2019-01-08T19:56:05.047Z,99665.80
2019-01-08T19:58:06.497Z,99663.03
2019-01-08T20:00:10.001Z,99673.36
2019-01-08T20:02:11.405Z,99668.73
2019-01-08T20:04:17.720Z,99661.38
2019-01-08T20:06:16.146Z,99656.48
2019-01-08T20:08:17.602Z,99664.15
2019-01-08T20:10:19.321Z,99665.22
2019-01-08T20:12:20.707Z,99672.94
2019-01-08T20:14:22.126Z,99678.00
2019-01-08T20:16:23.604Z,99676.55
2019-01-08T20:18:24.997Z,99684.25
2019-01-08T20:20:26.628Z,99679.23
2019-01-08T20:22:28.105Z,99680.14
2019-01-08T20:24:29.490Z,99685.20
2019-01-08T20:26:30.876Z,99681.94
2019-01-08T20:28:32.338Z,99678.22
2019-01-08T20:30:34.042Z,99679.13
2019-01-08T20:32:35.473Z,99671.46
2019-01-08T20:34:36.821Z,99678.50
2019-01-08T20:36:38.270Z,99679.05
2019-01-08T20:38:39.654Z,99676.45
2019-01-08T20:40:41.049Z,99675.61
2019-01-08T20:42:42.515Z,99681.45
2019-01-08T20:44:44.013Z,99677.02
2019-01-08T20:46:45.410Z,99674.38
2019-01-08T20:48:47.122Z,99676.03
2019-01-08T20:50:48.512Z,99671.41
2019-01-08T20:52:49.914Z,99668.93
2019-01-08T20:54:51.604Z,99666.18
2019-01-08T20:56:53.084Z,99667.26
2019-01-08T20:58:54.494Z,99669.89
2019-01-08T21:00:55.950Z,99669.05
2019-01-08T21:02:57.339Z,99671.83
2019-01-08T21:04:58.841Z,99670.63
2019-01-08T21:07:00.581Z,99678.69
2019-01-08T21:09:02.929Z,99679.94
2019-01-08T21:11:06.146Z,99673.27
2019-01-08T21:13:07.996Z,99676.34
2019-01-08T21:15:09.490Z,99672.98
2019-01-08T21:17:10.876Z,99675.55
2019-01-08T21:19:12.339Z,99674.63
2019-01-08T21:21:13.832Z,99675.27
2019-01-08T21:23:15.210Z,99669.59
2019-01-08T21:25:16.918Z,99671.22
2019-01-08T21:27:18.302Z,99671.54
2019-01-08T21:29:19.700Z,99672.81
2019-01-08T21:31:21.136Z,99670.76
2019-01-08T21:33:22.543Z,99676.98
2019-01-08T21:35:23.909Z,99680.42
2019-01-08T21:37:25.361Z,99673.82
2019-01-08T21:39:26.755Z,99672.44
2019-01-08T21:41:28.153Z,99679.91
2019-01-08T21:43:29.843Z,99676.09
2019-01-08T21:45:31.339Z,99667.98
2019-01-08T21:47:32.728Z,99677.41
2019-01-08T21:49:34.388Z,99665.02
2019-01-08T21:51:35.777Z,99670.61
2019-01-08T21:53:37.170Z,99668.43
2019-01-08T21:55:38.614Z,99670.89
2019-01-08T21:57:40.004Z,99666.13
2019-01-08T21:59:41.408Z,99673.48
2019-01-08T22:01:43.049Z,99682.76
2019-01-08T22:03:44.438Z,99686.27
2019-01-08T22:05:45.995Z,99681.09
2019-01-08T22:07:47.628Z,99672.42
2019-01-08T22:09:49.037Z,99688.47
2019-01-08T22:11:50.435Z,99679.60
2019-01-08T22:13:51.880Z,99680.03
2019-01-08T22:15:53.260Z,99672.81
2019-01-08T22:17:54.644Z,99672.13
2019-01-08T22:19:56.087Z,99681.13
2019-01-08T22:21:57.467Z,99676.30
2019-01-08T22:23:58.904Z,99675.83
2019-01-08T22:26:00.290Z,99680.20
2019-01-08T22:28:01.681Z,99676.83
2019-01-08T22:30:05.221Z,99670.50
2019-01-08T22:32:06.620Z,99682.84
2019-01-08T22:34:08.001Z,99676.20
2019-01-08T22:36:09.461Z,99677.20
2019-01-08T22:38:10.833Z,99675.03
2019-01-08T22:40:12.213Z,99674.75
2019-01-08T22:42:13.656Z,99675.20
2019-01-08T22:44:15.040Z,99668.23
2019-01-08T22:46:16.428Z,99663.88
2019-01-08T22:48:18.134Z,99669.56
2019-01-08T22:50:19.525Z,99669.33
2019-01-08T22:52:21.715Z,99667.76
2019-01-08T22:54:23.180Z,99664.73
2019-01-08T22:56:24.763Z,99664.20
2019-01-08T22:58:26.150Z,99669.63
2019-01-08T23:00:34.588Z,99669.15
2019-01-08T23:02:36.182Z,99666.60
2019-01-08T23:04:37.619Z,99664.44
2019-01-08T23:06:39.128Z,99662.16
2019-01-08T23:08:40.726Z,99659.33
2019-01-08T23:10:42.277Z,99668.98
2019-01-08T23:12:44.260Z,99659.15
2019-01-08T23:14:45.645Z,99667.58
2019-01-08T23:16:47.079Z,99660.66
2019-01-08T23:18:48.459Z,99661.61
2019-01-08T23:20:49.851Z,99665.32
2019-01-08T23:22:51.320Z,99670.77
2019-01-08T23:24:52.755Z,99672.61
2019-01-08T23:26:54.193Z,99668.20
2019-01-08T23:28:55.559Z,99671.36
2019-01-08T23:30:56.996Z,99674.42
2019-01-08T23:32:58.494Z,99678.69